This is the latest recevied weather packets stored in our database for station/object HG8LXL-2. If no packets are shown the sender has not sent any weather packets the latest 10 day(s).
| Time | Temp. | Humidity | Pressure | Rain* | Wind** | Luminosity | Snow |
|---|---|---|---|---|---|---|---|
| 1778147704 | 26.11° C | 42% | 1011 hPa | - | - | - | - |
| 1778147404 | 27.22° C | 40% | 1010.9 hPa | - | - | - | - |
| 1778147104 | 27.22° C | 41% | 1011 hPa | - | - | - | - |
| 1778146804 | 25° C | 45% | 1011.1 hPa | - | - | - | - |
| 1778146504 | 26.11° C | 44% | 1011 hPa | - | - | - | - |
| 1778146204 | 26.11° C | 45% | 1011.1 hPa | - | - | - | - |
| 1778145904 | 25.56° C | 46% | 1011.1 hPa | - | - | - | - |
| 1778145604 | 24.44° C | 47% | 1011.1 hPa | - | - | - | - |
| 1778145304 | 23.89° C | 49% | 1011 hPa | - | - | - | - |
| 1778145004 | 23.89° C | 49% | 1011.1 hPa | - | - | - | - |
| 1778144704 | 23.89° C | 50% | 1011 hPa | - | - | - | - |
| 1778144404 | 23.33° C | 50% | 1011 hPa | - | - | - | - |
| 1778144104 | 23.33° C | 49% | 1011.1 hPa | - | - | - | - |
| 1778143804 | 23.89° C | 48% | 1011 hPa | - | - | - | - |
| 1778143504 | 23.33° C | 48% | 1010.9 hPa | - | - | - | - |
| 1778143204 | 23.33° C | 48% | 1010.8 hPa | - | - | - | - |
| 1778142904 | 23.89° C | 48% | 1010.8 hPa | - | - | - | - |
| 1778142604 | 23.89° C | 47% | 1010.7 hPa | - | - | - | - |
| 1778142304 | 23.89° C | 47% | 1010.7 hPa | - | - | - | - |
| 1778142004 | 23.89° C | 47% | 1010.6 hPa | - | - | - | - |
| 1778141706 | 24.44° C | 47% | 1010.4 hPa | - | - | - | - |
| 1778141404 | 25° C | 47% | 1010.5 hPa | - | - | - | - |
| 1778141104 | 24.44° C | 49% | 1010.4 hPa | - | - | - | - |
| 1778140804 | 25° C | 48% | 1010.4 hPa | - | - | - | - |
| 1778140504 | 25.56° C | 47% | 1010.3 hPa | - | - | - | - |
* Rain since midnight (hover to see other rain measurements)
** Current wind speed in m/s (hover to see current wind gust speed)